Falls Mills, Virginia
Current Conditions -  °F | °C
As of 4:52 PM on Wednesday 22 Oct 2014 (Local Time) from KBLF Reporting Station
Haze Haze  
Wind Chill: 40°   Ceiling: 500
Heat Index: 44°   Visibility: 6mi
Dew Point: 40°   Wind: 7mph
Humidity: 85%   Direction: 310°NW
Pressure: 30.16"   Gusts: NA
Location:  37.28°N, 81.31°W
Report Text: KBLF 222052Z AUTO 31006KT 6SM BR OVC005 07/04 A3016 RMK AO2 RAB33E49 SLP215 P0000 60000 T00670044 53004
Loading
Personal Weather Stations






























Interactive Weather Map
Tropical Storm Tracking
New forecast layout! Learn more

10-Day Weather Forecast

Advertisements
Track Severe Weather on mobile